Time,TemperatureF,DewpointF,PressureIn,WindDirection,WindDirectionDegrees,WindSpeedMPH,WindSpeedGustMPH,Humidity,HourlyPrecipIn,Conditions,Clouds,dailyrainin,SoftwareType,DateUTC
2013-01-21 00:04:00,14.0,9.2,30.50,NW,315,2.2,3.5,81,0.00,OVC,SKC,0.00,WeatherDisplay:10.37,2013-01-21 06:04:00,
2013-01-21 00:09:00,14.1,9.3,30.50,NW,316,1.8,3.5,81,0.00,OVC,SKC,0.00,WeatherDisplay:10.37,2013-01-21 06:09:00,
2013-01-21 00:14:00,14.3,9.5,30.50,NW,312,2.8,4.6,81,0.00,OVC,SKC,0.00,WeatherDisplay:10.37,2013-01-21 06:14:00,
2013-01-21 00:19:00,14.4,9.4,30.49,WNW,293,3.0,5.8,80,0.00,OVC,SKC,0.00,WeatherDisplay:10.37,2013-01-21 06:19:00,
2013-01-21 00:24:00,14.5,9.5,30.49,West,273,2.4,3.5,80,0.00,OVC,SKC,0.00,WeatherDisplay:10.37,2013-01-21 06:24:00,
2013-01-21 00:29:00,14.7,9.6,30.49,NNW,330,1.6,3.5,80,0.00,OVC,SKC,0.00,WeatherDisplay:10.37,2013-01-21 06:29:00,
2013-01-21 00:34:00,14.8,9.7,30.50,West,280,2.3,4.0,80,0.00,OVC,SKC,0.00,WeatherDisplay:10.37,2013-01-21 06:34:00,
2013-01-21 00:39:00,14.9,9.6,30.50,NW,326,3.4,4.6,79,0.00,OVC,SKC,0.00,WeatherDisplay:10.37,2013-01-21 06:39:00,
2013-01-21 00:44:00,14.9,9.8,30.50,NW,309,4.1,6.0,80,0.00,OVC,SKC,0.00,WeatherDisplay:10.37,2013-01-21 06:44:00,
2013-01-21 00:49:00,14.9,9.6,30.49,NW,326,3.9,6.0,79,0.00,OVC,SKC,0.00,WeatherDisplay:10.37,2013-01-21 06:49:00,
2013-01-21 00:54:00,15.0,9.4,30.49,NW,316,3.7,6.0,78,0.00,OVC,SKC,0.00,WeatherDisplay:10.37,2013-01-21 06:54:00,
2013-01-21 00:59:00,15.0,8.5,30.49,NW,314,4.4,10.4,75,0.00,OVC,SKC,0.00,WeatherDisplay:10.37,2013-01-21 06:59:00,
2013-01-21 01:04:00,15.0,8.5,30.49,NNW,344,3.9,5.8,75,0.00,OVC,SKC,0.00,WeatherDisplay:10.37,2013-01-21 07:04:00,
2013-01-21 01:09:00,15.1,8.6,30.49,NW,319,4.3,6.9,75,0.00,OVC,SKC,0.00,WeatherDisplay:10.37,2013-01-21 07:09:00,
2013-01-21 01:14:00,14.9,8.7,30.50,NW,323,2.9,5.0,76,0.00,OVC,SKC,0.00,WeatherDisplay:10.37,2013-01-21 07:14:00,
2013-01-21 01:19:00,14.7,8.5,30.49,ENE,58,4.0,8.1,76,0.00,OVC,SKC,0.00,WeatherDisplay:10.37,2013-01-21 07:19:00,
2013-01-21 01:24:00,14.5,8.3,30.49,NNW,338,4.1,7.0,76,0.00,OVC,SKC,0.00,WeatherDisplay:10.37,2013-01-21 07:24:00,
2013-01-21 01:29:00,14.3,7.8,30.50,WNW,302,3.6,7.0,75,0.00,OVC,SKC,0.00,WeatherDisplay:10.37,2013-01-21 07:29:00,
2013-01-21 01:34:00,14.0,7.5,30.50,NW,323,7.8,11.5,75,0.00,OVC,SKC,0.00,WeatherDisplay:10.37,2013-01-21 07:34:00,
2013-01-21 01:39:00,13.8,7.3,30.50,NNW,333,5.3,11.5,75,0.00,OVC,SKC,0.00,WeatherDisplay:10.37,2013-01-21 07:39:00,
2013-01-21 01:44:00,13.7,6.9,30.50,NW,326,7.2,9.0,74,0.00,OVC,SKC,0.00,WeatherDisplay:10.37,2013-01-21 07:44:00,
2013-01-21 01:49:00,13.4,6.4,30.50,NNW,335,4.1,5.8,73,0.00,OVC,SKC,0.00,WeatherDisplay:10.37,2013-01-21 07:49:00,
2013-01-21 01:54:00,13.4,6.4,30.49,NW,323,5.5,10.0,73,0.00,OVC,SKC,0.00,WeatherDisplay:10.37,2013-01-21 07:54:00,
2013-01-21 01:59:00,13.3,6.3,30.50,NW,316,6.6,11.5,73,0.00,OVC,SKC,0.00,WeatherDisplay:10.37,2013-01-21 07:59:00,
2013-01-21 02:04:00,13.3,6.3,30.50,NW,309,3.9,9.2,73,0.00,OVC,SKC,0.00,WeatherDisplay:10.37,2013-01-21 08:04:00,
2013-01-21 02:09:00,13.3,6.6,30.50,NNW,328,6.7,10.4,74,0.00,OVC,SKC,0.00,WeatherDisplay:10.37,2013-01-21 08:09:00,
2013-01-21 02:14:00,13.2,6.5,30.50,NNW,338,7.5,11.5,74,0.00,OVC,SKC,0.00,WeatherDisplay:10.37,2013-01-21 08:14:00,
2013-01-21 02:19:00,13.2,6.2,30.50,NW,321,7.1,8.1,73,0.00,OVC,SKC,0.00,WeatherDisplay:10.37,2013-01-21 08:19:00,
2013-01-21 02:24:00,13.1,5.8,30.50,NW,323,6.2,10.4,72,0.00,OVC,SKC,0.00,WeatherDisplay:10.37,2013-01-21 08:24:00,
2013-01-21 02:29:00,13.1,4.8,30.49,NNW,333,7.0,13.0,69,0.00,OVC,SKC,0.00,WeatherDisplay:10.37,2013-01-21 08:29:00,
2013-01-21 02:34:00,13.1,4.5,30.50,NW,304,5.2,10.4,68,0.00,OVC,SKC,0.00,WeatherDisplay:10.37,2013-01-21 08:34:00,
2013-01-21 02:39:00,13.0,4.4,30.50,NW,312,9.3,10.4,68,0.00,OVC,SKC,0.00,WeatherDisplay:10.37,2013-01-21 08:39:00,
2013-01-21 02:44:00,12.7,3.5,30.50,NW,315,11.4,17.3,66,0.00,OVC,SKC,0.00,WeatherDisplay:10.37,2013-01-21 08:44:00,
2013-01-21 02:49:00,12.3,2.8,30.50,NW,326,12.5,12.7,65,0.00,OVC,SKC,0.00,WeatherDisplay:10.37,2013-01-21 08:49:00,
2013-01-21 02:54:00,12.1,2.2,30.50,NW,320,9.2,13.8,64,0.00,OVC,SKC,0.00,WeatherDisplay:10.37,2013-01-21 08:54:00,
2013-01-21 02:59:00,11.8,2.0,30.51,NNW,344,8.4,11.5,64,0.00,OVC,SKC,0.00,WeatherDisplay:10.37,2013-01-21 08:59:00,
2013-01-21 03:04:00,11.7,1.9,30.51,NNW,330,6.0,10.4,64,0.00,OVC,SKC,0.00,WeatherDisplay:10.37,2013-01-21 09:04:00,
2013-01-21 03:09:00,11.7,2.2,30.51,NW,323,3.3,5.0,65,0.00,OVC,SKC,0.00,WeatherDisplay:10.37,2013-01-21 09:09:00,
2013-01-21 03:14:00,11.6,2.1,30.51,NNW,347,5.9,9.2,65,0.00,OVC,SKC,0.00,WeatherDisplay:10.37,2013-01-21 09:14:00,
2013-01-21 03:19:00,11.5,2.0,30.51,NNW,340,3.0,4.6,65,0.00,OVC,SKC,0.00,WeatherDisplay:10.37,2013-01-21 09:19:00,
2013-01-21 03:24:00,11.4,1.2,30.50,NNW,331,8.7,13.8,63,0.00,OVC,SKC,0.00,WeatherDisplay:10.37,2013-01-21 09:24:00,
2013-01-21 03:29:00,11.3,0.8,30.50,NNW,338,6.3,10.4,62,0.00,OVC,SKC,0.00,WeatherDisplay:10.37,2013-01-21 09:29:00,
2013-01-21 03:34:00,11.3,0.8,30.50,NW,319,6.1,11.5,62,0.00,OVC,SKC,0.00,WeatherDisplay:10.37,2013-01-21 09:34:00,
2013-01-21 03:39:00,11.2,1.0,30.50,North,8,5.5,8.1,63,0.00,OVC,SKC,0.00,WeatherDisplay:10.37,2013-01-21 09:39:00,
2013-01-21 03:45:00,11.0,0.9,30.50,NW,313,3.9,5.8,63,0.00,OVC,SKC,0.00,WeatherDisplay:10.37,2013-01-21 09:45:00,
2013-01-21 03:50:00,10.9,0.1,30.50,NW,307,5.8,9.2,61,0.00,OVC,SKC,0.00,WeatherDisplay:10.37,2013-01-21 09:50:00,
2013-01-21 03:55:00,10.8,-0.4,30.50,NW,322,11.5,16.1,60,0.00,OVC,SKC,0.00,WeatherDisplay:10.37,2013-01-21 09:55:00,
2013-01-21 04:00:00,10.7,-0.5,30.50,WNW,295,6.5,11.5,60,0.00,OVC,SKC,0.00,WeatherDisplay:10.37,2013-01-21 10:00:00,
2013-01-21 04:05:00,10.6,-0.9,30.50,NNW,331,6.7,11.5,59,0.00,OVC,SKC,0.00,WeatherDisplay:10.37,2013-01-21 10:05:00,
2013-01-21 04:10:00,10.7,-0.5,30.50,WNW,297,6.4,11.5,60,0.00,OVC,SKC,0.00,WeatherDisplay:10.37,2013-01-21 10:10:00,
2013-01-21 04:15:00,10.6,-0.6,30.50,NW,319,7.2,9.2,60,0.00,OVC,SKC,0.00,WeatherDisplay:10.37,2013-01-21 10:15:00,
2013-01-21 04:20:00,10.6,-0.9,30.50,NW,315,5.5,10.4,59,0.00,OVC,SKC,0.00,WeatherDisplay:10.37,2013-01-21 10:20:00,
2013-01-21 04:25:00,10.6,-1.3,30.50,NNW,328,6.8,11.0,58,0.00,OVC,SKC,0.00,WeatherDisplay:10.37,2013-01-21 10:25:00,
2013-01-21 04:30:00,10.4,-1.8,30.50,NNW,330,7.1,8.1,57,0.00,OVC,SKC,0.00,WeatherDisplay:10.37,2013-01-21 10:30:00,
2013-01-21 04:35:00,10.2,-1.7,30.50,NW,323,7.3,11.5,58,0.00,OVC,SKC,0.00,WeatherDisplay:10.37,2013-01-21 10:35:00,
2013-01-21 04:40:00,9.7,-3.3,30.50,NW,326,9.1,13.8,55,0.00,OVC,SKC,0.00,WeatherDisplay:10.37,2013-01-21 10:40:00,
2013-01-21 04:45:00,9.5,-3.4,30.50,NW,314,6.2,8.1,55,0.00,OVC,SKC,0.00,WeatherDisplay:10.37,2013-01-21 10:45:00,
2013-01-21 04:50:00,9.3,-3.6,30.50,NW,319,6.3,9.2,55,0.00,OVC,SKC,0.00,WeatherDisplay:10.37,2013-01-21 10:50:00,
2013-01-21 04:55:00,9.1,-4.2,30.50,NW,319,7.6,12.7,54,0.00,OVC,SKC,0.00,WeatherDisplay:10.37,2013-01-21 10:55:00,
2013-01-21 05:00:00,8.8,-5.7,30.50,NW,309,7.5,12.7,51,0.00,OVC,SKC,0.00,WeatherDisplay:10.37,2013-01-21 11:00:00,
2013-01-21 05:05:00,8.7,-5.4,30.51,NW,319,6.6,9.2,52,0.00,OVC,SKC,0.00,WeatherDisplay:10.37,2013-01-21 11:05:00,
2013-01-21 05:10:00,8.4,-4.1,30.51,North,360,7.7,13.8,56,0.00,OVC,SKC,0.00,WeatherDisplay:10.37,2013-01-21 11:10:00,
2013-01-21 05:15:00,8.2,-3.6,30.50,NW,316,6.5,9.2,58,0.00,OVC,SKC,0.00,WeatherDisplay:10.37,2013-01-21 11:15:00,
2013-01-21 05:20:00,8.0,-3.0,30.50,NNW,345,9.2,10.4,60,0.00,OVC,SKC,0.00,WeatherDisplay:10.37,2013-01-21 11:20:00,
2013-01-21 05:25:00,7.8,-2.5,30.50,NW,317,3.3,5.8,62,0.00,OVC,SKC,0.00,WeatherDisplay:10.37,2013-01-21 11:25:00,
2013-01-21 05:30:00,7.6,-2.4,30.50,NNW,339,7.4,11.5,63,0.00,OVC,SKC,0.00,WeatherDisplay:10.37,2013-01-21 11:30:00,
2013-01-21 05:35:00,7.4,-2.6,30.50,NW,317,5.6,13.8,63,0.00,OVC,SKC,0.00,WeatherDisplay:10.37,2013-01-21 11:35:00,
2013-01-21 05:40:00,7.3,-3.0,30.51,NNW,339,5.8,11.0,62,0.00,OVC,SKC,0.00,WeatherDisplay:10.37,2013-01-21 11:40:00,
2013-01-21 05:45:00,7.2,-3.1,30.51,NW,312,4.7,5.8,62,0.00,OVC,SKC,0.00,WeatherDisplay:10.37,2013-01-21 11:45:00,
2013-01-21 05:50:00,7.0,-4.0,30.51,North,349,9.2,15.0,60,0.00,OVC,SKC,0.00,WeatherDisplay:10.37,2013-01-21 11:50:00,
2013-01-21 05:55:00,6.9,-3.7,30.51,NNW,338,6.7,9.2,61,0.00,OVC,SKC,0.00,WeatherDisplay:10.37,2013-01-21 11:55:00,
2013-01-21 06:00:00,6.7,-4.6,30.51,NW,317,8.0,11.5,59,0.00,OVC,SKC,0.00,WeatherDisplay:10.37,2013-01-21 12:00:00,
2013-01-21 06:05:00,6.6,-4.7,30.51,NW,317,4.8,9.0,59,0.00,OVC,SKC,0.00,WeatherDisplay:10.37,2013-01-21 12:05:00,
2013-01-21 06:10:00,6.5,-5.2,30.51,NW,317,7.5,11.5,58,0.00,OVC,SKC,0.00,WeatherDisplay:10.37,2013-01-21 12:10:00,
2013-01-21 06:15:00,6.4,-4.9,30.51,NNW,342,4.7,8.1,59,0.00,OVC,SKC,0.00,WeatherDisplay:10.37,2013-01-21 12:15:00,
2013-01-21 06:20:00,6.2,-5.1,30.52,NW,321,6.9,11.5,59,0.00,OVC,SKC,0.00,WeatherDisplay:10.37,2013-01-21 12:20:00,
2013-01-21 06:25:00,6.0,-5.3,30.52,NNW,336,7.3,12.0,59,0.00,BKN,SKC,0.00,WeatherDisplay:10.37,2013-01-21 12:25:00,
2013-01-21 06:30:00,5.6,-5.3,30.52,NW,312,8.4,11.5,60,0.00,BKN,SKC,0.00,WeatherDisplay:10.37,2013-01-21 12:30:00,
2013-01-21 06:35:00,5.5,-5.1,30.52,North,356,7.0,11.5,61,0.00,BKN,SKC,0.00,WeatherDisplay:10.37,2013-01-21 12:35:00,
2013-01-21 06:40:00,5.3,-4.9,30.52,NW,319,5.8,8.1,62,0.00,BKN,SKC,0.00,WeatherDisplay:10.37,2013-01-21 12:40:00,
2013-01-21 06:45:00,5.2,-4.7,30.53,NNW,338,6.9,11.5,63,0.00,SCT,SKC,0.00,WeatherDisplay:10.37,2013-01-21 12:45:00,
2013-01-21 06:50:00,4.7,-5.1,30.52,NNW,327,10.4,16.1,63,0.00,SCT,SKC,0.00,WeatherDisplay:10.37,2013-01-21 12:50:00,
2013-01-21 06:55:00,4.5,-5.0,30.52,NW,326,7.9,12.7,64,0.00,SCT,SKC,0.00,WeatherDisplay:10.37,2013-01-21 12:55:00,
2013-01-21 07:00:00,4.1,-5.4,30.53,NNE,16,5.2,9.2,64,0.00,SCT,SKC,0.00,WeatherDisplay:10.37,2013-01-21 13:00:00,
2013-01-21 07:05:00,4.1,-5.4,30.53,NW,326,4.5,5.8,64,0.00,SCT,SKC,0.00,WeatherDisplay:10.37,2013-01-21 13:05:00,
2013-01-21 07:10:00,4.1,-5.4,30.52,NW,317,4.7,8.1,64,0.00,SCT,SKC,0.00,WeatherDisplay:10.37,2013-01-21 13:10:00,
2013-01-21 07:15:00,4.1,-5.4,30.53,NNE,30,4.5,8.1,64,0.00,SCT,SKC,0.00,WeatherDisplay:10.37,2013-01-21 13:15:00,
2013-01-21 07:20:00,4.2,-5.0,30.53,NNE,26,3.3,5.0,65,0.00,SCT,SKC,0.00,WeatherDisplay:10.37,2013-01-21 13:20:00,
2013-01-21 07:25:00,4.1,-4.8,30.53,North,357,3.9,8.1,66,0.00,SCT,SKC,0.00,WeatherDisplay:10.37,2013-01-21 13:25:00,
2013-01-21 07:30:00,3.8,-5.0,30.53,NNW,331,2.2,4.6,66,0.00,SCT,SKC,0.00,WeatherDisplay:10.37,2013-01-21 13:30:00,
2013-01-21 07:35:00,3.7,-4.8,30.53,North,349,5.1,9.2,67,0.00,SCT,SKC,0.00,WeatherDisplay:10.37,2013-01-21 13:35:00,
2013-01-21 07:40:00,3.5,-5.3,30.53,NW,305,4.3,6.9,66,0.00,SCT,SKC,0.00,WeatherDisplay:10.37,2013-01-21 13:40:00,
2013-01-21 07:45:00,3.5,-5.0,30.53,NNW,344,4.9,7.0,67,0.00,BKN,SKC,0.00,WeatherDisplay:10.37,2013-01-21 13:45:00,
2013-01-21 07:50:00,3.4,-5.1,30.53,NNW,344,4.5,6.9,67,0.00,BKN,SKC,0.00,WeatherDisplay:10.37,2013-01-21 13:50:00,
2013-01-21 07:55:00,3.5,-5.0,30.52,NW,326,3.1,3.5,67,0.00,BKN,SKC,0.00,WeatherDisplay:10.37,2013-01-21 13:55:00,
2013-01-21 08:00:00,3.5,-5.0,30.53,NNW,347,4.7,10.4,67,0.00,BKN,SKC,0.00,WeatherDisplay:10.37,2013-01-21 14:00:00,
2013-01-21 08:05:00,3.3,-5.2,30.53,NNE,15,6.3,12.7,67,0.00,SCT,SKC,0.00,WeatherDisplay:10.37,2013-01-21 14:05:00,
2013-01-21 08:10:00,3.3,-5.2,30.53,NNW,333,4.4,6.9,67,0.00,SCT,SKC,0.00,WeatherDisplay:10.37,2013-01-21 14:10:00,
2013-01-21 08:15:00,3.2,-5.0,30.53,NNW,333,3.2,6.0,68,0.00,SCT,SKC,0.00,WeatherDisplay:10.37,2013-01-21 14:15:00,
2013-01-21 08:20:00,3.2,-5.0,30.53,NNW,333,3.4,6.9,68,0.00,SCT,SKC,0.00,WeatherDisplay:10.37,2013-01-21 14:20:00,
2013-01-21 08:25:00,3.2,-5.0,30.54,North,11,3.2,8.1,68,0.00,SCT,SKC,0.00,WeatherDisplay:10.37,2013-01-21 14:25:00,
2013-01-21 08:30:00,3.4,-4.8,30.53,NW,325,6.0,9.0,68,0.00,SCT,SKC,0.00,WeatherDisplay:10.37,2013-01-21 14:30:00,
2013-01-21 08:35:00,3.4,-4.8,30.53,NW,326,3.5,8.0,68,0.00,SCT,SKC,0.00,WeatherDisplay:10.37,2013-01-21 14:35:00,
2013-01-21 08:40:00,3.5,-4.7,30.53,NNW,328,6.1,8.1,68,0.00,SCT,SKC,0.00,WeatherDisplay:10.37,2013-01-21 14:40:00,
2013-01-21 08:45:00,3.5,-4.7,30.53,NNW,346,4.2,5.8,68,0.00,SCT,SKC,0.00,WeatherDisplay:10.37,2013-01-21 14:45:00,
2013-01-21 08:50:00,3.7,-4.2,30.54,WSW,253,0.5,2.3,69,0.00,SCT,SKC,0.00,WeatherDisplay:10.37,2013-01-21 14:50:00,
2013-01-21 08:55:00,3.9,-4.3,30.54,NW,307,2.3,2.3,68,0.00,SCT,SKC,0.00,WeatherDisplay:10.37,2013-01-21 14:55:00,
2013-01-21 09:00:00,4.1,-4.1,30.54,NW,325,1.6,2.3,68,0.00,SCT,SKC,0.00,WeatherDisplay:10.37,2013-01-21 15:00:00,
2013-01-21 09:05:00,4.0,-4.5,30.54,North,11,4.9,4.9,67,0.00,OVC,SKC,0.00,WeatherDisplay:10.37,2013-01-21 15:05:00,
2013-01-21 09:10:00,4.0,-4.5,30.54,NW,304,5.2,6.9,67,0.00,OVC,SKC,0.00,WeatherDisplay:10.37,2013-01-21 15:10:00,
2013-01-21 09:15:00,4.1,-4.8,30.54,NNW,338,5.8,7.0,66,0.00,OVC,SKC,0.00,WeatherDisplay:10.37,2013-01-21 15:15:00,
2013-01-21 09:20:00,4.1,-5.1,30.54,NNW,331,9.0,11.5,65,0.00,OVC,SKC,0.00,WeatherDisplay:10.37,2013-01-21 15:20:00,
2013-01-21 09:25:00,4.2,-5.3,30.54,NNW,336,7.5,10.4,64,0.00,OVC,SKC,0.00,WeatherDisplay:10.37,2013-01-21 15:25:00,
2013-01-21 09:31:00,4.3,-5.5,30.54,NW,323,7.4,8.0,63,0.00,OVC,SKC,0.00,WeatherDisplay:10.37,2013-01-21 15:31:00,
2013-01-21 09:36:00,4.5,-5.3,30.54,NW,317,4.6,6.9,63,0.00,OVC,SKC,0.00,WeatherDisplay:10.37,2013-01-21 15:36:00,
2013-01-21 09:41:00,4.6,-5.6,30.55,NW,321,4.6,9.2,62,0.00,OVC,SKC,0.00,WeatherDisplay:10.37,2013-01-21 15:41:00,
2013-01-21 09:46:00,4.6,-5.9,30.55,WNW,301,3.6,6.0,61,0.00,OVC,SKC,0.00,WeatherDisplay:10.37,2013-01-21 15:46:00,
2013-01-21 09:51:00,4.6,-5.6,30.56,North,1,3.3,3.5,62,0.00,OVC,SKC,0.00,WeatherDisplay:10.37,2013-01-21 15:51:00,
2013-01-21 09:56:00,4.8,-5.4,30.55,NW,326,2.9,3.5,62,0.00,OVC,SKC,0.00,WeatherDisplay:10.37,2013-01-21 15:56:00,
2013-01-21 10:01:00,5.1,-5.1,30.55,WNW,302,1.7,3.5,62,0.00,OVC,SKC,0.00,WeatherDisplay:10.37,2013-01-21 16:01:00,
2013-01-21 10:06:00,5.2,-5.0,30.55,NNW,341,6.2,8.1,62,0.00,BKN,SKC,0.00,WeatherDisplay:10.37,2013-01-21 16:06:00,
2013-01-21 10:11:00,5.0,-4.9,30.55,NW,311,4.8,9.0,63,0.00,BKN,SKC,0.00,WeatherDisplay:10.37,2013-01-21 16:11:00,
2013-01-21 10:16:00,4.9,-5.6,30.55,NW,317,4.5,5.8,61,0.00,BKN,SKC,0.00,WeatherDisplay:10.37,2013-01-21 16:16:00,
2013-01-21 10:21:00,4.9,-6.3,30.55,NNW,328,4.6,6.9,59,0.00,BKN,SKC,0.00,WeatherDisplay:10.37,2013-01-21 16:21:00,
2013-01-21 10:26:00,4.9,-6.7,30.55,NW,317,4.2,7.0,58,0.00,SCT,SKC,0.00,WeatherDisplay:10.37,2013-01-21 16:26:00,
2013-01-21 10:31:00,5.0,-6.6,30.55,NNE,19,2.2,6.9,58,0.00,SCT,SKC,0.00,WeatherDisplay:10.37,2013-01-21 16:31:00,
2013-01-21 10:36:00,5.1,-6.1,30.55,NW,323,4.0,6.0,59,0.00,SCT,SKC,0.00,WeatherDisplay:10.37,2013-01-21 16:36:00,
2013-01-21 10:41:00,5.4,-5.8,30.56,North,351,3.6,10.0,59,0.00,SCT,SKC,0.00,WeatherDisplay:10.37,2013-01-21 16:41:00,
2013-01-21 10:46:00,5.3,-6.3,30.55,WNW,288,3.6,6.9,58,0.00,SCT,SKC,0.00,WeatherDisplay:10.37,2013-01-21 16:46:00,
2013-01-21 10:51:00,5.5,-5.7,30.55,NNW,332,4.4,6.0,59,0.00,SCT,SKC,0.00,WeatherDisplay:10.37,2013-01-21 16:51:00,
2013-01-21 10:56:00,5.6,-5.7,30.55,NNW,329,4.1,6.0,59,0.00,SCT,SKC,0.00,WeatherDisplay:10.37,2013-01-21 16:56:00,
2013-01-21 11:01:00,5.5,-5.7,30.55,North,356,6.0,9.2,59,0.00,SCT,SKC,0.00,WeatherDisplay:10.37,2013-01-21 17:01:00,
2013-01-21 11:06:00,5.6,-5.3,30.55,NW,316,2.5,4.0,60,0.00,SCT,SKC,0.00,WeatherDisplay:10.37,2013-01-21 17:06:00,
2013-01-21 11:11:00,5.8,-5.1,30.55,WNW,297,1.9,3.0,60,0.00,SCT,SKC,0.00,WeatherDisplay:10.37,2013-01-21 17:11:00,
2013-01-21 11:16:00,5.9,-5.0,30.55,NW,311,2.1,3.5,60,0.00,SCT,SKC,0.00,WeatherDisplay:10.37,2013-01-21 17:16:00,
2013-01-21 11:21:00,6.1,-4.8,30.54,WNW,283,3.4,4.6,60,0.00,SCT,SKC,0.00,WeatherDisplay:10.37,2013-01-21 17:21:00,
2013-01-21 11:26:00,6.1,-4.8,30.55,WNW,301,1.9,4.6,60,0.00,SCT,SKC,0.00,WeatherDisplay:10.37,2013-01-21 17:26:00,
2013-01-21 11:31:00,6.6,-4.0,30.55,NW,311,3.1,6.0,61,0.00,SCT,SKC,0.00,WeatherDisplay:10.37,2013-01-21 17:31:00,
2013-01-21 11:36:00,6.4,-4.5,30.55,WNW,294,3.4,4.6,60,0.00,SCT,SKC,0.00,WeatherDisplay:10.37,2013-01-21 17:36:00,
2013-01-21 11:41:00,6.2,-4.7,30.55,West,280,3.4,3.5,60,0.00,SCT,SKC,0.00,WeatherDisplay:10.37,2013-01-21 17:41:00,
2013-01-21 11:46:00,6.4,-4.2,30.55,NW,322,3.3,4.0,61,0.00,SCT,SKC,0.00,WeatherDisplay:10.37,2013-01-21 17:46:00,
2013-01-21 11:51:00,6.4,-4.5,30.54,NW,307,3.9,5.8,60,0.00,SCT,SKC,0.00,WeatherDisplay:10.37,2013-01-21 17:51:00,
2013-01-21 11:56:00,6.5,-4.5,30.54,NNW,340,3.3,4.6,60,0.00,SCT,SKC,0.00,WeatherDisplay:10.37,2013-01-21 17:56:00,
2013-01-21 12:01:00,6.6,-4.7,30.54,NW,304,3.9,5.8,59,0.00,SCT,SKC,0.00,WeatherDisplay:10.37,2013-01-21 18:01:00,
2013-01-21 12:06:00,6.7,-5.3,30.53,WNW,293,4.6,6.9,57,0.00,SCT,SKC,0.00,WeatherDisplay:10.37,2013-01-21 18:06:00,
2013-01-21 12:11:00,6.8,-5.6,30.53,NNW,335,4.4,6.0,56,0.00,SCT,SKC,0.00,WeatherDisplay:10.37,2013-01-21 18:11:00,
2013-01-21 12:16:00,6.9,-5.9,30.53,NNW,334,4.6,5.8,55,0.00,SCT,SKC,0.00,WeatherDisplay:10.37,2013-01-21 18:16:00,
2013-01-21 12:21:00,6.9,-5.9,30.53,NW,307,4.2,5.8,55,0.00,SCT,SKC,0.00,WeatherDisplay:10.37,2013-01-21 18:21:00,
2013-01-21 12:26:00,6.9,-5.9,30.52,NW,319,5.2,6.9,55,0.00,CLR,SKC,0.00,WeatherDisplay:10.37,2013-01-21 18:26:00,
2013-01-21 12:31:00,7.0,-5.8,30.52,NW,326,2.5,4.6,55,0.00,CLR,SKC,0.00,WeatherDisplay:10.37,2013-01-21 18:31:00,
2013-01-21 12:36:00,7.3,-5.9,30.52,NNW,333,4.6,9.2,54,0.00,CLR,SKC,0.00,WeatherDisplay:10.37,2013-01-21 18:36:00,
2013-01-21 12:41:00,7.5,-6.1,30.52,WNW,300,4.7,5.8,53,0.00,CLR,SKC,0.00,WeatherDisplay:10.37,2013-01-21 18:41:00,
2013-01-21 12:46:00,7.7,-5.5,30.51,NNW,330,7.6,11.5,54,0.00,CLR,SKC,0.00,WeatherDisplay:10.37,2013-01-21 18:46:00,
2013-01-21 12:51:00,7.7,-5.9,30.51,NNW,338,5.9,6.9,53,0.00,CLR,SKC,0.00,WeatherDisplay:10.37,2013-01-21 18:51:00,
2013-01-21 12:56:00,7.7,-5.9,30.51,NW,323,3.2,5.8,53,0.00,CLR,SKC,0.00,WeatherDisplay:10.37,2013-01-21 18:56:00,
2013-01-21 13:01:00,8.2,-5.0,30.51,NW,304,3.2,6.0,54,0.00,SCT,SKC,0.00,WeatherDisplay:10.37,2013-01-21 19:01:00,
2013-01-21 13:06:00,8.3,-5.3,30.51,North,349,4.2,10.0,53,0.00,SCT,SKC,0.00,WeatherDisplay:10.37,2013-01-21 19:06:00,
2013-01-21 13:11:00,8.4,-5.2,30.51,West,269,3.6,6.0,53,0.00,SCT,SKC,0.00,WeatherDisplay:10.37,2013-01-21 19:11:00,
2013-01-21 13:16:00,8.4,-5.2,30.50,NW,326,4.8,6.9,53,0.00,SCT,SKC,0.00,WeatherDisplay:10.37,2013-01-21 19:16:00,
2013-01-21 13:21:00,8.5,-5.5,30.50,NW,325,3.3,6.9,52,0.00,SCT,SKC,0.00,WeatherDisplay:10.37,2013-01-21 19:21:00,
2013-01-21 13:26:00,8.5,-5.5,30.49,NW,323,4.2,5.8,52,0.00,SCT,SKC,0.00,WeatherDisplay:10.37,2013-01-21 19:26:00,
2013-01-21 13:31:00,8.7,-5.4,30.50,WNW,296,3.7,5.8,52,0.00,SCT,SKC,0.00,WeatherDisplay:10.37,2013-01-21 19:31:00,
2013-01-21 13:36:00,8.8,-5.3,30.50,NNW,335,4.2,8.1,52,0.00,SCT,SKC,0.00,WeatherDisplay:10.37,2013-01-21 19:36:00,
2013-01-21 13:41:00,9.0,-5.1,30.49,NNW,332,3.4,6.9,52,0.00,SCT,SKC,0.00,WeatherDisplay:10.37,2013-01-21 19:41:00,
2013-01-21 13:46:00,9.0,-5.5,30.50,NNW,331,3.3,4.6,51,0.00,SCT,SKC,0.00,WeatherDisplay:10.37,2013-01-21 19:46:00,
2013-01-21 13:51:00,9.1,-5.0,30.50,NW,326,4.2,6.9,52,0.00,SCT,SKC,0.00,WeatherDisplay:10.37,2013-01-21 19:51:00,
2013-01-21 13:56:00,9.1,-5.4,30.49,West,267,3.2,8.1,51,0.00,SCT,SKC,0.00,WeatherDisplay:10.37,2013-01-21 19:56:00,
2013-01-21 14:02:00,9.2,-4.9,30.49,SW,235,0.4,3.5,52,0.00,CLR,SKC,0.00,WeatherDisplay:10.37,2013-01-21 20:02:00,
2013-01-21 14:07:00,9.8,-4.3,30.49,North,349,1.7,3.5,52,0.00,CLR,SKC,0.00,WeatherDisplay:10.37,2013-01-21 20:07:00,
2013-01-21 14:12:00,9.6,-4.9,30.48,NW,307,1.0,3.5,51,0.00,CLR,SKC,0.00,WeatherDisplay:10.37,2013-01-21 20:12:00,
2013-01-21 14:17:00,9.8,-4.7,30.49,WNW,301,3.4,4.6,51,0.00,CLR,SKC,0.00,WeatherDisplay:10.37,2013-01-21 20:17:00,
2013-01-21 14:22:00,10.0,-4.6,30.49,NNW,333,4.0,4.6,51,0.00,CLR,SKC,0.00,WeatherDisplay:10.37,2013-01-21 20:22:00,
2013-01-21 14:27:00,10.0,-4.6,30.48,North,355,3.7,3.7,51,0.00,CLR,SKC,0.00,WeatherDisplay:10.37,2013-01-21 20:27:00,
2013-01-21 14:32:00,10.1,-4.5,30.48,NW,320,4.1,6.9,51,0.00,CLR,SKC,0.00,WeatherDisplay:10.37,2013-01-21 20:32:00,
2013-01-21 14:37:00,10.4,-4.6,30.48,NW,306,2.4,5.8,50,0.00,CLR,SKC,0.00,WeatherDisplay:10.37,2013-01-21 20:37:00,
2013-01-21 14:42:00,10.2,-4.8,30.49,NNW,332,5.4,6.9,50,0.00,CLR,SKC,0.00,WeatherDisplay:10.37,2013-01-21 20:42:00,
2013-01-21 14:47:00,10.2,-4.4,30.49,NW,319,1.9,4.0,51,0.00,CLR,SKC,0.00,WeatherDisplay:10.37,2013-01-21 20:47:00,
2013-01-21 14:52:00,10.6,-4.4,30.49,NW,321,1.7,4.6,50,0.00,CLR,SKC,0.00,WeatherDisplay:10.37,2013-01-21 20:52:00,
2013-01-21 14:57:00,10.9,-4.1,30.49,NW,320,3.1,3.5,50,0.00,CLR,SKC,0.00,WeatherDisplay:10.37,2013-01-21 20:57:00,
2013-01-21 15:02:00,10.9,-4.1,30.48,WNW,293,3.2,11.0,50,0.00,CLR,SKC,0.00,WeatherDisplay:10.37,2013-01-21 21:02:00,
2013-01-21 15:07:00,10.7,-4.7,30.48,NW,317,1.3,3.5,49,0.00,CLR,SKC,0.00,WeatherDisplay:10.37,2013-01-21 21:07:00,
2013-01-21 15:12:00,10.9,-4.1,30.48,NW,305,1.2,3.0,50,0.00,CLR,SKC,0.00,WeatherDisplay:10.37,2013-01-21 21:12:00,
2013-01-21 15:17:00,11.1,-3.9,30.48,West,277,2.2,3.5,50,0.00,CLR,SKC,0.00,WeatherDisplay:10.37,2013-01-21 21:17:00,
2013-01-21 15:22:00,11.3,-4.2,30.48,WNW,296,1.1,3.5,49,0.00,CLR,SKC,0.00,WeatherDisplay:10.37,2013-01-21 21:22:00,
2013-01-21 15:27:00,11.7,-3.4,30.48,WNW,290,1.9,8.1,50,0.00,CLR,SKC,0.00,WeatherDisplay:10.37,2013-01-21 21:27:00,
2013-01-21 15:32:00,11.8,-4.2,30.48,NW,307,4.9,5.8,48,0.00,CLR,SKC,0.00,WeatherDisplay:10.37,2013-01-21 21:32:00,
2013-01-21 15:37:00,11.9,-3.6,30.48,WNW,293,2.6,3.5,49,0.00,CLR,SKC,0.00,WeatherDisplay:10.37,2013-01-21 21:37:00,
2013-01-21 15:42:00,12.0,-4.0,30.48,West,279,4.6,10.0,48,0.00,CLR,SKC,0.00,WeatherDisplay:10.37,2013-01-21 21:42:00,
2013-01-21 15:47:00,11.8,-4.2,30.48,NW,307,6.1,8.1,48,0.00,CLR,SKC,0.00,WeatherDisplay:10.37,2013-01-21 21:47:00,
2013-01-21 15:52:00,11.8,-4.2,30.48,West,265,3.6,4.6,48,0.00,CLR,SKC,0.00,WeatherDisplay:10.37,2013-01-21 21:52:00,
2013-01-21 15:57:00,11.9,-4.5,30.48,WNW,284,6.0,10.4,47,0.00,CLR,SKC,0.00,WeatherDisplay:10.37,2013-01-21 21:57:00,
2013-01-21 16:02:00,11.9,-4.5,30.47,WNW,301,3.5,8.1,47,0.00,CLR,SKC,0.00,WeatherDisplay:10.37,2013-01-21 22:02:00,
2013-01-21 16:07:00,12.1,-3.9,30.47,NW,304,2.8,4.0,48,0.00,CLR,SKC,0.00,WeatherDisplay:10.37,2013-01-21 22:07:00,
2013-01-21 16:12:00,12.1,-4.3,30.47,NW,309,2.8,4.6,47,0.00,CLR,SKC,0.00,WeatherDisplay:10.37,2013-01-21 22:12:00,
2013-01-21 16:17:00,12.3,-3.7,30.47,WNW,295,5.1,5.8,48,0.00,CLR,SKC,0.00,WeatherDisplay:10.37,2013-01-21 22:17:00,
2013-01-21 16:22:00,12.3,-3.7,30.47,North,356,2.2,4.0,48,0.00,CLR,SKC,0.00,WeatherDisplay:10.37,2013-01-21 22:22:00,
2013-01-21 16:27:00,12.1,-3.9,30.47,NW,322,5.1,9.2,48,0.00,CLR,SKC,0.00,WeatherDisplay:10.37,2013-01-21 22:27:00,
2013-01-21 16:32:00,12.0,-4.0,30.47,North,351,5.2,5.8,48,0.00,CLR,SKC,0.00,WeatherDisplay:10.37,2013-01-21 22:32:00,
2013-01-21 16:37:00,12.1,-3.4,30.47,North,355,6.7,7.0,49,0.00,CLR,SKC,0.00,WeatherDisplay:10.37,2013-01-21 22:37:00,
2013-01-21 16:42:00,12.0,-4.0,30.47,North,354,2.9,6.9,48,0.00,CLR,SKC,0.00,WeatherDisplay:10.37,2013-01-21 22:42:00,
2013-01-21 16:47:00,12.0,-3.5,30.47,NW,314,2.9,5.8,49,0.00,CLR,SKC,0.00,WeatherDisplay:10.37,2013-01-21 22:47:00,
2013-01-21 16:52:00,12.0,-3.5,30.47,NNW,339,1.4,3.5,49,0.00,CLR,SKC,0.00,WeatherDisplay:10.37,2013-01-21 22:52:00,
2013-01-21 16:57:00,12.1,-3.0,30.46,NNW,343,2.3,3.0,50,0.00,CLR,SKC,0.00,WeatherDisplay:10.37,2013-01-21 22:57:00,
2013-01-21 17:02:00,12.0,-3.1,30.46,NNW,336,3.8,5.0,50,0.00,SCT,SKC,0.00,WeatherDisplay:10.37,2013-01-21 23:02:00,
2013-01-21 17:07:00,12.0,-3.1,30.46,NW,321,1.4,3.5,50,0.00,SCT,SKC,0.00,WeatherDisplay:10.37,2013-01-21 23:07:00,
2013-01-21 17:12:00,12.1,-2.6,30.46,NW,307,1.5,3.5,51,0.00,SCT,SKC,0.00,WeatherDisplay:10.37,2013-01-21 23:12:00,
2013-01-21 17:17:00,12.1,-2.6,30.46,NW,316,1.7,3.0,51,0.00,SCT,SKC,0.00,WeatherDisplay:10.37,2013-01-21 23:17:00,
2013-01-21 17:22:00,12.1,-2.6,30.46,WNW,293,0.5,1.1,51,0.00,BKN,SKC,0.00,WeatherDisplay:10.37,2013-01-21 23:22:00,
2013-01-21 17:27:00,12.1,-2.6,30.46,NNW,339,3.7,8.0,51,0.00,BKN,SKC,0.00,WeatherDisplay:10.37,2013-01-21 23:27:00,
2013-01-21 17:32:00,12.0,-2.7,30.46,WNW,297,2.3,2.3,51,0.00,BKN,SKC,0.00,WeatherDisplay:10.37,2013-01-21 23:32:00,
2013-01-21 17:37:00,12.0,-2.7,30.46,NW,317,4.7,5.8,51,0.00,BKN,SKC,0.00,WeatherDisplay:10.37,2013-01-21 23:37:00,
2013-01-21 17:42:00,11.9,-2.8,30.46,NW,314,3.9,6.9,51,0.00,OVC,SKC,0.00,WeatherDisplay:10.37,2013-01-21 23:42:00,
2013-01-21 17:47:00,11.9,-2.8,30.45,NNW,335,3.8,5.8,51,0.00,OVC,SKC,0.00,WeatherDisplay:10.37,2013-01-21 23:47:00,
2013-01-21 17:52:00,11.9,-2.4,30.46,NNW,333,3.3,5.8,52,0.00,OVC,SKC,0.00,WeatherDisplay:10.37,2013-01-21 23:52:00,
2013-01-21 17:57:00,11.9,-2.4,30.45,NW,316,3.0,3.5,52,0.00,OVC,SKC,0.00,WeatherDisplay:10.37,2013-01-21 23:57:00,
2013-01-21 18:02:00,12.0,-2.3,30.45,NNW,330,3.8,5.8,52,0.00,SCT,SKC,0.00,WeatherDisplay:10.37,2013-01-22 00:02:00,
2013-01-21 18:07:00,12.0,-1.9,30.46,NNW,333,1.8,3.5,53,0.00,SCT,SKC,0.00,WeatherDisplay:10.37,2013-01-22 00:07:00,
2013-01-21 18:12:00,12.1,-1.8,30.46,NW,326,2.3,3.5,53,0.00,SCT,SKC,0.00,WeatherDisplay:10.37,2013-01-22 00:12:00,
2013-01-21 18:17:00,12.0,-2.3,30.46,NNW,342,1.8,3.5,52,0.00,SCT,SKC,0.00,WeatherDisplay:10.37,2013-01-22 00:17:00,
2013-01-21 18:22:00,11.9,-2.0,30.46,NNE,20,2.5,6.0,53,0.00,CLR,SKC,0.00,WeatherDisplay:10.37,2013-01-22 00:22:00,
2013-01-21 18:27:00,11.8,-2.5,30.47,NW,304,2.9,4.6,52,0.00,CLR,SKC,0.00,WeatherDisplay:10.37,2013-01-22 00:27:00,
2013-01-21 18:32:00,11.8,-2.1,30.47,NNW,340,2.6,3.5,53,0.00,CLR,SKC,0.00,WeatherDisplay:10.37,2013-01-22 00:32:00,
2013-01-21 18:37:00,11.7,-2.2,30.47,NW,309,4.6,8.1,53,0.00,CLR,SKC,0.00,WeatherDisplay:10.37,2013-01-22 00:37:00,
2013-01-21 18:42:00,11.6,-2.3,30.47,North,357,3.3,5.0,53,0.00,SCT,SKC,0.00,WeatherDisplay:10.37,2013-01-22 00:42:00,
2013-01-21 18:47:00,11.6,-2.3,30.47,NW,317,3.3,3.5,53,0.00,SCT,SKC,0.00,WeatherDisplay:10.37,2013-01-22 00:47:00,
2013-01-21 18:52:00,11.5,-2.0,30.47,NW,326,1.6,2.3,54,0.00,SCT,SKC,0.00,WeatherDisplay:10.37,2013-01-22 00:52:00,
2013-01-21 18:57:00,11.5,-2.0,30.47,NNE,28,2.2,3.5,54,0.00,SCT,SKC,0.00,WeatherDisplay:10.37,2013-01-22 00:57:00,
2013-01-21 19:02:00,11.4,-2.0,30.47,North,350,2.3,3.5,54,0.00,OVC,SKC,0.00,WeatherDisplay:10.37,2013-01-22 01:02:00,
2013-01-21 19:07:00,11.4,-2.0,30.47,NW,318,0.3,2.3,54,0.00,OVC,SKC,0.00,WeatherDisplay:10.37,2013-01-22 01:07:00,
2013-01-21 19:12:00,11.5,-2.0,30.47,NNW,328,2.8,3.5,54,0.00,OVC,SKC,0.00,WeatherDisplay:10.37,2013-01-22 01:12:00,
2013-01-21 19:17:00,11.4,-2.0,30.47,NW,323,2.4,3.5,54,0.00,OVC,SKC,0.00,WeatherDisplay:10.37,2013-01-22 01:17:00,
2013-01-21 19:23:00,11.5,-2.0,30.47,NNW,331,2.0,3.5,54,0.00,OVC,SKC,0.00,WeatherDisplay:10.37,2013-01-22 01:23:00,
2013-01-21 19:28:00,11.5,-2.0,30.47,NW,310,0.7,2.3,54,0.00,OVC,SKC,0.00,WeatherDisplay:10.37,2013-01-22 01:28:00,
2013-01-21 19:33:00,11.5,-1.6,30.47,NW,316,1.3,2.3,55,0.00,OVC,SKC,0.00,WeatherDisplay:10.37,2013-01-22 01:33:00,
2013-01-21 19:38:00,11.5,-1.6,30.47,NNW,342,1.6,3.5,55,0.00,OVC,SKC,0.00,WeatherDisplay:10.37,2013-01-22 01:38:00,
2013-01-21 19:43:00,11.3,-1.0,30.48,NNE,20,3.1,4.0,57,0.00,OVC,SKC,0.00,WeatherDisplay:10.37,2013-01-22 01:43:00,
2013-01-21 19:48:00,11.0,-0.5,30.48,NNE,15,4.3,5.8,59,0.00,OVC,SKC,0.00,WeatherDisplay:10.37,2013-01-22 01:48:00,
2013-01-21 19:53:00,10.8,-0.7,30.47,NE,39,3.5,4.0,59,0.00,OVC,SKC,0.00,WeatherDisplay:10.37,2013-01-22 01:53:00,
2013-01-21 19:58:00,10.7,-0.5,30.47,North,349,1.2,2.3,60,0.00,OVC,SKC,0.00,WeatherDisplay:10.37,2013-01-22 01:58:00,
2013-01-21 20:03:00,10.7,-0.1,30.47,North,354,2.5,3.5,61,0.00,OVC,SKC,0.00,WeatherDisplay:10.37,2013-01-22 02:03:00,
2013-01-21 20:08:00,10.7,-0.1,30.47,North,11,2.8,4.6,61,0.00,OVC,SKC,0.00,WeatherDisplay:10.37,2013-01-22 02:08:00,
2013-01-21 20:13:00,10.6,-0.2,30.47,North,354,2.2,3.5,61,0.00,OVC,SKC,0.00,WeatherDisplay:10.37,2013-01-22 02:13:00,
2013-01-21 20:18:00,10.5,0.0,30.47,North,5,1.1,3.5,62,0.00,OVC,SKC,0.00,WeatherDisplay:10.37,2013-01-22 02:18:00,
2013-01-21 20:23:00,10.5,0.0,30.48,NNW,339,1.0,3.5,62,0.00,OVC,SKC,0.00,WeatherDisplay:10.37,2013-01-22 02:23:00,
2013-01-21 20:28:00,10.4,-0.1,30.47,NNW,330,1.5,3.5,62,0.00,OVC,SKC,0.00,WeatherDisplay:10.37,2013-01-22 02:28:00,
2013-01-21 20:33:00,10.4,-0.1,30.47,NNE,12,0.7,2.3,62,0.00,OVC,SKC,0.00,WeatherDisplay:10.37,2013-01-22 02:33:00,
2013-01-21 20:38:00,10.5,0.4,30.47,NE,42,2.2,4.0,63,0.00,OVC,SKC,0.00,WeatherDisplay:10.37,2013-01-22 02:38:00,
2013-01-21 20:43:00,10.4,-0.1,30.47,NNE,33,2.5,4.6,62,0.00,OVC,SKC,0.00,WeatherDisplay:10.37,2013-01-22 02:43:00,
2013-01-21 20:48:00,10.4,0.3,30.48,NE,53,2.3,3.5,63,0.00,OVC,SKC,0.00,WeatherDisplay:10.37,2013-01-22 02:48:00,
2013-01-21 20:53:00,10.4,0.3,30.47,NE,54,2.7,3.5,63,0.00,OVC,SKC,0.00,WeatherDisplay:10.37,2013-01-22 02:53:00,
2013-01-21 20:58:00,10.4,0.6,30.47,NE,51,2.0,3.5,64,0.00,OVC,SKC,0.00,WeatherDisplay:10.37,2013-01-22 02:58:00,
2013-01-21 21:03:00,10.3,0.5,30.47,NNE,25,3.8,4.6,64,0.00,OVC,SKC,0.00,WeatherDisplay:10.37,2013-01-22 03:03:00,
2013-01-21 21:08:00,10.2,0.1,30.47,NNE,14,1.6,3.5,63,0.00,OVC,SKC,0.00,WeatherDisplay:10.37,2013-01-22 03:08:00,
2013-01-21 21:13:00,10.2,0.4,30.47,NE,52,3.7,5.8,64,0.00,OVC,SKC,0.00,WeatherDisplay:10.37,2013-01-22 03:13:00,
2013-01-21 21:18:00,10.0,0.2,30.47,NE,41,4.3,5.8,64,0.00,OVC,SKC,0.00,WeatherDisplay:10.37,2013-01-22 03:18:00,
2013-01-21 21:23:00,9.9,0.1,30.47,NE,48,0.8,4.6,64,0.00,OVC,SKC,0.00,WeatherDisplay:10.37,2013-01-22 03:23:00,
2013-01-21 21:28:00,10.0,0.6,30.48,NE,43,0.4,2.3,65,0.00,OVC,SKC,0.00,WeatherDisplay:10.37,2013-01-22 03:28:00,
2013-01-21 21:33:00,9.9,0.5,30.47,North,6,1.8,3.5,65,0.00,OVC,SKC,0.00,WeatherDisplay:10.37,2013-01-22 03:33:00,
2013-01-21 21:38:00,9.9,0.5,30.47,NNE,13,3.4,3.5,65,0.00,OVC,SKC,0.00,WeatherDisplay:10.37,2013-01-22 03:38:00,
2013-01-21 21:43:00,10.0,0.6,30.47,NNE,27,3.1,3.5,65,0.00,OVC,SKC,0.00,WeatherDisplay:10.37,2013-01-22 03:43:00,
2013-01-21 21:48:00,10.0,0.6,30.47,NE,44,3.4,4.6,65,0.00,OVC,SKC,0.00,WeatherDisplay:10.37,2013-01-22 03:48:00,
2013-01-21 21:53:00,9.9,0.5,30.47,North,8,2.5,3.5,65,0.00,OVC,SKC,0.00,WeatherDisplay:10.37,2013-01-22 03:53:00,
2013-01-21 21:58:00,9.9,0.5,30.47,NNE,28,2.5,4.0,65,0.00,OVC,SKC,0.00,WeatherDisplay:10.37,2013-01-22 03:58:00,
2013-01-21 22:03:00,9.9,0.5,30.46,NNE,17,1.8,3.5,65,0.00,OVC,SKC,0.00,WeatherDisplay:10.37,2013-01-22 04:03:00,
2013-01-21 22:08:00,9.7,0.0,30.46,NE,48,3.7,3.7,64,0.00,OVC,SKC,0.00,WeatherDisplay:10.37,2013-01-22 04:08:00,
2013-01-21 22:13:00,9.6,-0.1,30.46,NE,54,2.2,3.5,64,0.00,OVC,SKC,0.00,WeatherDisplay:10.37,2013-01-22 04:13:00,
2013-01-21 22:18:00,9.6,0.2,30.47,NE,53,1.3,2.3,65,0.00,OVC,SKC,0.00,WeatherDisplay:10.37,2013-01-22 04:18:00,
2013-01-21 22:23:00,9.6,0.2,30.47,NE,44,1.3,2.3,65,0.00,BKN,SKC,0.00,WeatherDisplay:10.37,2013-01-22 04:23:00,
2013-01-21 22:28:00,9.6,0.2,30.47,ENE,69,0.6,2.0,65,0.00,BKN,SKC,0.00,WeatherDisplay:10.37,2013-01-22 04:28:00,
2013-01-21 22:33:00,9.6,-0.1,30.47,ENE,57,1.1,2.3,64,0.00,BKN,SKC,0.00,WeatherDisplay:10.37,2013-01-22 04:33:00,
2013-01-21 22:38:00,9.6,0.2,30.47,ENE,74,0.1,1.1,65,0.00,BKN,SKC,0.00,WeatherDisplay:10.37,2013-01-22 04:38:00,
2013-01-21 22:43:00,9.6,0.2,30.47,ENE,74,0.0,0.0,65,0.00,SCT,SKC,0.00,WeatherDisplay:10.37,2013-01-22 04:43:00,
2013-01-21 22:48:00,9.6,0.2,30.47,ENE,74,0.0,0.0,65,0.00,SCT,SKC,0.00,WeatherDisplay:10.37,2013-01-22 04:48:00,
2013-01-21 22:53:00,9.6,0.2,30.47,ENE,74,0.0,0.0,65,0.00,SCT,SKC,0.00,WeatherDisplay:10.37,2013-01-22 04:53:00,
2013-01-21 22:58:00,9.7,0.3,30.47,East,91,0.0,0.0,65,0.00,SCT,SKC,0.00,WeatherDisplay:10.37,2013-01-22 04:58:00,
2013-01-21 23:00:00,9.6,0.2,30.47,East,85,0.0,0.0,65,0.00,SCT,SKC,0.00,WeatherDisplay:10.37,2013-01-22 05:00:00,
2013-01-21 23:06:00,9.6,0.2,30.47,SE,125,0.0,0.0,65,0.00,BKN,SKC,0.00,WeatherDisplay:10.37,2013-01-22 05:06:00,
2013-01-21 23:11:00,9.5,0.1,30.47,ESE,120,0.0,0.0,65,0.00,BKN,SKC,0.00,WeatherDisplay:10.37,2013-01-22 05:11:00,
2013-01-21 23:16:00,9.5,0.1,30.47,SE,134,0.0,0.0,65,0.00,BKN,SKC,0.00,WeatherDisplay:10.37,2013-01-22 05:16:00,
2013-01-21 23:21:00,9.5,0.1,30.46,SE,134,0.0,0.0,65,0.00,BKN,SKC,0.00,WeatherDisplay:10.37,2013-01-22 05:21:00,
2013-01-21 23:26:00,9.4,0.0,30.46,SE,134,0.0,0.0,65,0.00,SCT,SKC,0.00,WeatherDisplay:10.37,2013-01-22 05:26:00,
2013-01-21 23:31:00,9.5,0.1,30.47,SE,134,0.0,0.0,65,0.00,SCT,SKC,0.00,WeatherDisplay:10.37,2013-01-22 05:31:00,
2013-01-21 23:36:00,9.6,0.2,30.47,WSW,240,0.0,0.0,65,0.00,SCT,SKC,0.00,WeatherDisplay:10.37,2013-01-22 05:36:00,
2013-01-21 23:41:00,9.8,0.4,30.47,SSW,212,0.0,0.0,65,0.00,SCT,SKC,0.00,WeatherDisplay:10.37,2013-01-22 05:41:00,
2013-01-21 23:46:00,9.9,0.5,30.47,South,190,0.0,1.1,65,0.00,CLR,SKC,0.00,WeatherDisplay:10.37,2013-01-22 05:46:00,
2013-01-21 23:51:00,10.0,0.6,30.46,SW,219,0.0,0.0,65,0.00,CLR,SKC,0.00,WeatherDisplay:10.37,2013-01-22 05:51:00,
2013-01-21 23:56:00,10.1,0.7,30.47,SW,217,0.9,1.1,65,0.00,CLR,SKC,0.00,WeatherDisplay:10.37,2013-01-22 05:56:00,